Time;durP1;ratioP1;P1;durP2;ratioP2;P2;SDS_P1;SDS_P2;PMS_P1;PMS_P2;Temp;Humidity;BMP_temperature;BMP_pressure;BME280_temperature;BME280_humidity;BME280_pressure;Samples;Min_cycle;Max_cycle;Signal;HPM_P1;HPM_P2
2022/01/07 00:01:41;;;;;;;11.82;6.13;;;-0.90;90.50;;;;;;5021225;28;20094;-81
2022/01/07 00:04:07;;;;;;;11.45;6.03;;;-0.90;90.50;;;;;;5033576;28;20102;-82
2022/01/07 00:06:32;;;;;;;13.05;5.97;;;-0.90;90.50;;;;;;5026035;28;20431;-81
2022/01/07 00:08:58;;;;;;;10.93;6.15;;;-0.90;90.60;;;;;;5040227;28;20037;-81
2022/01/07 00:11:23;;;;;;;14.00;6.05;;;-0.90;90.60;;;;;;5041620;28;20120;-81
2022/01/07 00:13:49;;;;;;;17.05;6.15;;;-0.90;90.90;;;;;;5043710;28;20613;-81
2022/01/07 00:16:16;;;;;;;11.43;6.05;;;-1.00;90.60;;;;;;5022966;28;20056;-81
2022/01/07 00:18:43;;;;;;;12.77;6.25;;;-1.00;90.60;;;;;;5036097;28;20045;-81
2022/01/07 00:21:09;;;;;;;15.25;5.28;;;-1.00;90.60;;;;;;5018429;28;20033;-82
2022/01/07 00:23:35;;;;;;;13.88;6.13;;;-1.00;90.60;;;;;;5053235;28;20071;-82
2022/01/07 00:26:00;;;;;;;11.80;6.35;;;-1.00;90.60;;;;;;5014824;28;20446;-81
2022/01/07 00:28:26;;;;;;;9.40;6.07;;;-1.00;90.60;;;;;;5043598;28;20041;-81
2022/01/07 00:30:51;;;;;;;13.60;6.03;;;-1.00;90.60;;;;;;5038224;28;20426;-81
2022/01/07 00:33:17;;;;;;;11.15;6.13;;;-1.00;90.60;;;;;;5039474;28;20036;-81
2022/01/07 00:35:43;;;;;;;12.27;6.40;;;-1.10;90.60;;;;;;5051095;28;20068;-82
2022/01/07 00:38:08;;;;;;;10.93;5.53;;;-1.10;90.60;;;;;;5024459;28;20404;-82
2022/01/07 00:40:34;;;;;;;11.70;5.75;;;-1.10;90.70;;;;;;5027040;28;20033;-82
2022/01/07 00:43:00;;;;;;;10.43;5.78;;;-1.10;90.70;;;;;;5045417;28;20029;-81
2022/01/07 00:45:25;;;;;;;10.93;5.90;;;-1.10;90.70;;;;;;5032320;28;20037;-81
2022/01/07 00:47:51;;;;;;;11.23;5.53;;;-1.20;90.60;;;;;;5007943;28;20123;-81
2022/01/07 00:50:18;;;;;;;12.27;5.47;;;-1.20;90.60;;;;;;5018358;28;20029;-81
2022/01/07 00:52:44;;;;;;;11.52;5.72;;;-1.20;90.70;;;;;;5051320;28;20527;-81
2022/01/07 00:55:09;;;;;;;10.80;5.85;;;-1.20;90.70;;;;;;5039661;28;20044;-81
2022/01/07 00:57:35;;;;;;;14.48;6.13;;;-1.20;90.70;;;;;;5024291;28;20040;-82
2022/01/07 01:00:02;;;;;;;14.13;6.60;;;-1.20;90.70;;;;;;5035488;28;20045;-81
2022/01/07 01:02:27;;;;;;;13.70;5.68;;;-1.20;90.80;;;;;;5021872;28;20400;-81
2022/01/07 01:04:53;;;;;;;10.48;5.47;;;-1.20;90.80;;;;;;5034757;28;20040;-82
2022/01/07 01:07:18;;;;;;;15.68;6.60;;;-1.20;90.80;;;;;;5046007;28;20431;-81
2022/01/07 01:09:44;;;;;;;13.73;6.10;;;-1.20;90.80;;;;;;5021499;28;20041;-81
2022/01/07 01:12:10;;;;;;;14.23;5.80;;;-1.20;90.80;;;;;;5009610;28;20042;-81
2022/01/07 01:14:35;;;;;;;10.65;5.88;;;-1.20;90.80;;;;;;5043397;28;20040;-81
2022/01/07 01:17:01;;;;;;;13.02;6.10;;;-1.20;90.80;;;;;;5019444;28;20443;-81
2022/01/07 01:19:27;;;;;;;13.38;6.13;;;-1.20;90.80;;;;;;5019075;28;20528;-81
2022/01/07 01:21:52;;;;;;;11.45;5.90;;;-1.20;90.90;;;;;;5039345;28;20718;-81
2022/01/07 01:24:18;;;;;;;15.65;5.55;;;-1.20;90.90;;;;;;5020391;28;20583;-81
2022/01/07 01:26:44;;;;;;;13.32;5.93;;;-1.20;90.90;;;;;;5020904;28;20029;-82
2022/01/07 01:29:09;;;;;;;11.75;6.05;;;-1.20;90.90;;;;;;5020122;28;20044;-81
2022/01/07 01:31:36;;;;;;;13.48;5.75;;;-1.20;90.90;;;;;;5018531;28;20088;-81
2022/01/07 01:34:02;;;;;;;10.73;6.30;;;-1.10;91.00;;;;;;5039901;28;20040;-82
2022/01/07 01:36:27;;;;;;;13.82;6.75;;;-1.10;91.00;;;;;;5028330;28;20029;-81
2022/01/07 01:38:53;;;;;;;15.73;7.30;;;-1.10;91.00;;;;;;5017051;28;20120;-80
2022/01/07 01:41:18;;;;;;;17.00;6.93;;;-1.10;91.00;;;;;;5019243;28;20044;-80
2022/01/07 01:43:45;;;;;;;14.38;6.47;;;-1.00;91.10;;;;;;5035441;28;20053;-82
2022/01/07 01:46:10;;;;;;;15.57;8.13;;;-1.00;91.10;;;;;;5020461;28;20037;-82
2022/01/07 01:48:36;;;;;;;11.80;5.72;;;-1.00;91.10;;;;;;5017713;28;20570;-81
2022/01/07 01:51:01;;;;;;;17.10;6.95;;;-0.90;91.20;;;;;;5039080;28;20056;-83
2022/01/07 01:53:27;;;;;;;13.45;6.97;;;-0.90;91.20;;;;;;5027087;28;20475;-81
2022/01/07 01:55:53;;;;;;;15.70;6.90;;;-0.90;91.20;;;;;;5019209;28;20059;-81
2022/01/07 01:58:18;;;;;;;13.93;6.50;;;-0.80;91.30;;;;;;5020947;28;20029;-81
2022/01/07 02:00:44;;;;;;;13.40;7.05;;;-0.80;91.30;;;;;;5019279;28;20513;-81
2022/01/07 02:03:09;;;;;;;13.55;6.35;;;-0.70;91.30;;;;;;5013743;28;20026;-81
2022/01/07 02:05:35;;;;;;;15.25;7.10;;;-0.70;91.40;;;;;;5036381;28;20040;-81
2022/01/07 02:08:00;;;;;;;13.18;6.78;;;-0.70;91.30;;;;;;5016784;28;20048;-81
2022/01/07 02:10:26;;;;;;;13.70;7.22;;;-0.70;91.40;;;;;;5014623;28;20057;-81
2022/01/07 02:12:52;;;;;;;14.48;7.07;;;-0.60;91.40;;;;;;5025205;28;20152;-81
2022/01/07 02:15:18;;;;;;;12.32;6.13;;;-0.60;91.40;;;;;;5036933;28;20041;-81
2022/01/07 02:17:45;;;;;;;13.38;7.05;;;-0.60;91.50;;;;;;5031033;28;20049;-80
2022/01/07 02:20:11;;;;;;;13.30;6.45;;;-0.60;91.50;;;;;;5008723;28;20099;-81
2022/01/07 02:22:37;;;;;;;17.15;6.47;;;-0.60;91.50;;;;;;5017127;28;20661;-81
2022/01/07 02:25:03;;;;;;;13.00;6.47;;;-0.60;91.50;;;;;;5019875;28;20037;-81
2022/01/07 02:27:28;;;;;;;12.32;6.63;;;-0.50;91.50;;;;;;5040675;28;20040;-83
2022/01/07 02:29:54;;;;;;;13.65;6.57;;;-0.50;91.60;;;;;;5018326;28;20948;-81
2022/01/07 02:32:21;;;;;;;18.35;6.78;;;-0.50;91.60;;;;;;5017933;28;20103;-81
2022/01/07 02:34:47;;;;;;;13.80;6.32;;;-0.50;91.60;;;;;;5019175;28;20041;-82
2022/01/07 02:37:13;;;;;;;11.02;5.93;;;-0.40;91.60;;;;;;5016714;28;20038;-80
2022/01/07 02:39:38;;;;;;;14.55;6.25;;;-0.40;91.60;;;;;;5022073;28;20044;-81
2022/01/07 02:42:04;;;;;;;14.02;6.80;;;-0.30;91.70;;;;;;5012024;28;20866;-82
2022/01/07 02:44:30;;;;;;;17.27;6.13;;;-0.30;91.70;;;;;;5014923;28;20025;-81
2022/01/07 02:46:55;;;;;;;15.32;6.05;;;-0.20;91.80;;;;;;5015490;28;20036;-81
2022/01/07 02:49:21;;;;;;;13.45;6.43;;;-0.10;91.80;;;;;;5042810;28;20044;-81
2022/01/07 02:51:46;;;;;;;15.00;6.85;;;0.00;91.80;;;;;;5019555;28;20068;-81
2022/01/07 02:54:12;;;;;;;12.13;7.07;;;0.00;91.80;;;;;;5015467;28;20426;-81
2022/01/07 02:56:38;;;;;;;18.95;7.30;;;0.10;91.80;;;;;;5031207;28;20598;-81
2022/01/07 02:59:04;;;;;;;16.70;6.82;;;0.20;91.80;;;;;;5018110;28;20802;-82
2022/01/07 03:01:30;;;;;;;11.50;5.75;;;0.20;91.80;;;;;;5022754;28;20038;-82
2022/01/07 03:03:55;;;;;;;16.95;6.50;;;0.30;91.80;;;;;;5021866;28;20044;-81
2022/01/07 03:06:21;;;;;;;14.10;6.00;;;0.40;91.80;;;;;;5006886;28;20049;-81
2022/01/07 03:08:50;;;;;;;12.43;5.88;;;0.40;91.80;;;;;;5011185;28;20041;-81
2022/01/07 03:11:16;;;;;;;13.75;5.85;;;0.40;91.90;;;;;;5027024;28;20041;-80
2022/01/07 03:13:41;;;;;;;12.77;6.10;;;0.50;91.90;;;;;;4997335;28;20048;-80
2022/01/07 03:16:07;;;;;;;13.40;5.60;;;0.50;91.90;;;;;;5029926;28;20508;-82
2022/01/07 03:18:33;;;;;;;12.60;6.22;;;0.50;91.90;;;;;;5040805;28;20578;-81
2022/01/07 03:21:00;;;;;;;15.63;6.18;;;0.50;91.90;;;;;;5016831;28;20037;-81
2022/01/07 03:23:25;;;;;;;11.75;5.70;;;0.50;91.90;;;;;;5018398;28;20037;-80
2022/01/07 03:25:51;;;;;;;13.02;5.50;;;0.50;91.90;;;;;;5024060;28;20052;-81
2022/01/07 03:28:17;;;;;;;12.77;5.03;;;0.60;92.00;;;;;;5047636;28;20112;-81
2022/01/07 03:30:42;;;;;;;19.27;5.75;;;0.60;92.00;;;;;;5016931;28;20141;-80
2022/01/07 03:33:08;;;;;;;11.50;5.22;;;0.50;92.00;;;;;;5016475;28;20531;-80
2022/01/07 03:35:33;;;;;;;15.05;5.43;;;0.60;92.00;;;;;;5019047;28;20776;-80
2022/01/07 03:37:59;;;;;;;8.80;5.07;;;0.60;92.00;;;;;;5013324;28;20090;-81
2022/01/07 03:40:24;;;;;;;12.68;5.50;;;0.60;92.00;;;;;;5025784;28;20037;-80
2022/01/07 03:42:51;;;;;;;22.50;10.52;;;0.60;92.10;;;;;;5019913;28;20056;-80
2022/01/07 03:45:17;;;;;;;54.80;22.77;;;0.60;92.10;;;;;;5020428;28;20029;-80
2022/01/07 03:47:43;;;;;;;44.28;21.00;;;0.60;92.10;;;;;;5013961;28;20030;-82
2022/01/07 03:50:10;;;;;;;27.52;12.32;;;0.60;92.10;;;;;;5016638;28;20052;-81
2022/01/07 03:52:36;;;;;;;19.58;8.95;;;0.60;92.10;;;;;;5021809;28;20034;-81
2022/01/07 03:55:03;;;;;;;19.92;10.02;;;0.60;92.10;;;;;;5025999;28;20033;-82
2022/01/07 03:57:28;;;;;;;16.25;7.95;;;0.60;92.10;;;;;;5022836;28;20038;-82
2022/01/07 03:59:54;;;;;;;11.07;5.57;;;0.60;92.10;;;;;;5022411;28;20510;-81
2022/01/07 04:02:20;;;;;;;11.43;5.80;;;0.60;92.20;;;;;;5017035;28;20043;-81
2022/01/07 04:04:45;;;;;;;15.75;6.22;;;0.60;92.20;;;;;;5039475;28;20689;-82
2022/01/07 04:07:11;;;;;;;14.60;6.93;;;0.60;92.20;;;;;;5021926;28;20045;-81
2022/01/07 04:09:36;;;;;;;17.08;7.55;;;0.60;92.20;;;;;;5023959;28;20052;-81
2022/01/07 04:12:02;;;;;;;17.15;8.02;;;0.60;92.20;;;;;;5026789;28;20061;-81
2022/01/07 04:14:28;;;;;;;15.00;6.53;;;0.60;92.20;;;;;;5011524;28;20503;-82
2022/01/07 04:16:53;;;;;;;15.80;7.47;;;0.60;92.20;;;;;;5035116;28;20075;-81
2022/01/07 04:19:19;;;;;;;14.32;7.72;;;0.60;92.20;;;;;;5024564;28;20040;-81
2022/01/07 04:21:46;;;;;;;17.30;7.97;;;0.60;92.20;;;;;;5025408;28;20507;-81
2022/01/07 04:24:12;;;;;;;16.70;8.32;;;0.60;92.20;;;;;;5015424;28;20084;-81
2022/01/07 04:26:38;;;;;;;16.48;7.70;;;0.60;92.20;;;;;;5050955;28;20072;-82
2022/01/07 04:29:03;;;;;;;13.98;6.32;;;0.60;92.20;;;;;;5008348;28;20064;-81
2022/01/07 04:31:29;;;;;;;11.32;5.88;;;0.60;92.20;;;;;;5024517;28;20052;-80
2022/01/07 04:33:55;;;;;;;13.07;7.03;;;0.60;92.20;;;;;;5021498;28;20492;-80
2022/01/07 04:36:20;;;;;;;16.15;5.80;;;0.70;92.30;;;;;;5038377;28;20038;-81
2022/01/07 04:38:46;;;;;;;14.23;5.95;;;0.70;92.20;;;;;;5023265;28;20042;-80
2022/01/07 04:41:12;;;;;;;13.65;5.70;;;0.70;92.30;;;;;;5038228;28;20060;-80
2022/01/07 04:43:38;;;;;;;13.32;5.68;;;0.80;92.30;;;;;;5020971;28;20083;-79
2022/01/07 04:46:04;;;;;;;14.48;5.70;;;0.80;92.30;;;;;;5014080;28;21032;-79
2022/01/07 04:48:30;;;;;;;12.07;5.95;;;0.80;92.30;;;;;;5014686;28;20033;-80
2022/01/07 04:50:55;;;;;;;13.93;5.28;;;0.80;92.30;;;;;;5021369;28;20029;-81
2022/01/07 04:53:21;;;;;;;11.95;5.78;;;0.80;92.20;;;;;;5023364;28;20552;-81
2022/01/07 04:55:47;;;;;;;10.93;5.55;;;0.80;92.20;;;;;;5026915;28;20470;-81
2022/01/07 04:58:12;;;;;;;15.95;6.40;;;0.90;92.30;;;;;;5021773;28;20049;-80
2022/01/07 05:00:39;;;;;;;11.13;5.90;;;0.90;92.30;;;;;;5021492;28;20044;-81
2022/01/07 05:03:04;;;;;;;11.05;5.35;;;0.90;92.30;;;;;;5019936;28;20061;-81
2022/01/07 05:05:30;;;;;;;9.30;5.05;;;0.90;92.20;;;;;;5020404;28;20474;-81
2022/01/07 05:07:55;;;;;;;13.07;5.75;;;0.90;92.20;;;;;;5017831;28;20472;-81
2022/01/07 05:10:21;;;;;;;14.00;6.13;;;0.90;92.30;;;;;;5015410;28;20029;-81
2022/01/07 05:12:46;;;;;;;11.10;5.65;;;0.90;92.20;;;;;;5025495;28;20220;-81
2022/01/07 05:15:13;;;;;;;14.20;5.50;;;0.90;92.30;;;;;;5007409;28;20051;-80
2022/01/07 05:17:39;;;;;;;10.77;5.88;;;0.90;92.30;;;;;;5012467;28;20373;-81
2022/01/07 05:20:05;;;;;;;15.77;5.70;;;0.90;92.30;;;;;;5045671;28;20103;-81
2022/01/07 05:22:30;;;;;;;13.40;5.55;;;0.90;92.30;;;;;;5030206;28;20388;-81
2022/01/07 05:24:56;;;;;;;14.88;6.18;;;0.90;92.30;;;;;;5020556;28;20050;-81
2022/01/07 05:27:21;;;;;;;13.98;6.13;;;0.90;92.30;;;;;;5036968;28;20034;-80
2022/01/07 05:29:47;;;;;;;15.70;5.97;;;1.00;92.30;;;;;;5021239;28;20634;-81
2022/01/07 05:32:12;;;;;;;9.57;5.18;;;1.00;92.30;;;;;;4994061;28;20076;-80
2022/01/07 05:34:38;;;;;;;11.35;5.75;;;1.00;92.30;;;;;;5052071;28;20127;-80
2022/01/07 05:37:04;;;;;;;11.73;5.57;;;1.00;92.30;;;;;;5026779;28;20090;-80
2022/01/07 05:39:29;;;;;;;15.00;6.53;;;1.00;92.30;;;;;;5024490;28;20034;-80
2022/01/07 05:41:55;;;;;;;19.55;6.32;;;1.10;92.30;;;;;;5041472;28;20394;-80
2022/01/07 05:44:21;;;;;;;15.88;6.78;;;1.10;92.30;;;;;;5020510;28;20746;-81
2022/01/07 05:46:47;;;;;;;14.73;6.57;;;1.10;92.30;;;;;;5024395;28;20156;-80
2022/01/07 05:49:12;;;;;;;11.52;5.65;;;1.10;92.30;;;;;;5023809;28;20646;-80
2022/01/07 05:51:38;;;;;;;10.05;5.50;;;1.10;92.30;;;;;;5021286;28;20450;-80
2022/01/07 05:54:04;;;;;;;13.07;6.38;;;1.20;92.30;;;;;;5021511;28;20062;-80
2022/01/07 05:56:31;;;;;;;11.73;5.45;;;1.20;92.30;;;;;;5027958;28;20033;-80
2022/01/07 05:58:56;;;;;;;13.68;6.20;;;1.20;92.30;;;;;;5016755;28;20034;-80
2022/01/07 06:01:22;;;;;;;14.02;6.38;;;1.20;92.30;;;;;;5019793;28;20151;-80
2022/01/07 06:03:47;;;;;;;9.73;5.38;;;1.20;92.30;;;;;;5020161;28;20253;-80
2022/01/07 06:06:13;;;;;;;13.68;7.00;;;1.20;92.20;;;;;;5016308;28;20079;-80
2022/01/07 06:08:39;;;;;;;16.65;6.72;;;1.20;92.20;;;;;;5028203;28;20024;-82
2022/01/07 06:11:04;;;;;;;17.15;8.50;;;1.30;92.20;;;;;;5020460;28;20037;-81
2022/01/07 06:13:30;;;;;;;16.15;7.70;;;1.30;92.20;;;;;;5020787;28;20404;-80
2022/01/07 06:15:55;;;;;;;13.43;7.75;;;1.30;92.20;;;;;;5024616;28;20032;-81
2022/01/07 06:18:21;;;;;;;14.18;7.15;;;1.30;92.20;;;;;;5038634;28;20488;-80
2022/01/07 06:20:46;;;;;;;12.98;7.03;;;1.30;92.20;;;;;;5020068;28;20107;-80
2022/01/07 06:23:12;;;;;;;14.65;7.07;;;1.30;92.20;;;;;;5008685;28;20047;-81
2022/01/07 06:25:37;;;;;;;11.88;7.07;;;1.30;92.20;;;;;;5024358;28;20112;-80
2022/01/07 06:28:03;;;;;;;12.25;6.60;;;1.30;92.20;;;;;;5017958;28;20053;-80
2022/01/07 06:30:28;;;;;;;11.30;6.32;;;1.30;92.20;;;;;;4989932;28;20044;-81
2022/01/07 06:32:54;;;;;;;14.10;6.22;;;1.30;92.20;;;;;;5047467;28;20933;-80
2022/01/07 06:35:20;;;;;;;15.90;6.05;;;1.30;92.10;;;;;;5016423;28;20504;-80
2022/01/07 06:37:46;;;;;;;12.57;6.13;;;1.30;92.10;;;;;;5010847;28;20546;-80
2022/01/07 06:40:11;;;;;;;11.65;6.30;;;1.30;92.20;;;;;;5026704;28;20053;-80
2022/01/07 06:42:37;;;;;;;14.30;7.03;;;1.30;92.10;;;;;;5020421;28;20045;-80
2022/01/07 06:45:05;;;;;;;9.95;5.78;;;1.40;92.10;;;;;;5016595;28;20436;-80
2022/01/07 06:47:30;;;;;;;11.35;5.82;;;1.40;92.10;;;;;;5000889;28;20602;-80
2022/01/07 06:49:56;;;;;;;11.15;6.03;;;1.40;92.10;;;;;;5000218;28;20232;-80
2022/01/07 06:52:21;;;;;;;13.88;6.03;;;1.40;92.10;;;;;;4998902;28;20116;-80
2022/01/07 06:54:47;;;;;;;13.75;6.03;;;1.40;92.10;;;;;;5023522;28;20041;-80
2022/01/07 06:57:12;;;;;;;13.88;6.20;;;1.40;92.10;;;;;;5021770;28;20848;-82
2022/01/07 06:59:38;;;;;;;18.58;6.38;;;1.40;92.10;;;;;;5015916;28;20033;-82
2022/01/07 07:02:04;;;;;;;12.80;6.25;;;1.40;92.10;;;;;;5026301;28;20061;-81
2022/01/07 07:04:29;;;;;;;8.73;5.07;;;1.40;92.10;;;;;;5017503;28;20198;-80
2022/01/07 07:06:55;;;;;;;13.60;5.20;;;1.40;92.10;;;;;;5016602;28;20051;-81
2022/01/07 07:09:20;;;;;;;9.93;5.82;;;1.40;92.10;;;;;;5000553;28;20041;-80
2022/01/07 07:11:46;;;;;;;12.18;6.78;;;1.40;92.10;;;;;;5005641;28;20039;-81
2022/01/07 07:14:12;;;;;;;12.80;5.97;;;1.40;92.10;;;;;;5031203;28;20085;-81
2022/01/07 07:16:37;;;;;;;10.35;6.18;;;1.40;92.10;;;;;;5014875;28;20052;-80
2022/01/07 07:19:03;;;;;;;13.70;6.88;;;1.40;92.10;;;;;;5018082;28;20025;-80
2022/01/07 07:21:28;;;;;;;11.40;6.78;;;1.40;92.10;;;;;;5018007;28;20758;-81
2022/01/07 07:23:54;;;;;;;14.13;6.80;;;1.40;92.10;;;;;;5021733;28;22185;-80
2022/01/07 07:26:19;;;;;;;11.27;6.20;;;1.40;92.10;;;;;;5024468;28;20120;-81
2022/01/07 07:28:46;;;;;;;11.57;7.03;;;1.40;92.00;;;;;;5000425;28;20093;-81
2022/01/07 07:31:15;;;;;;;16.90;7.75;;;1.40;92.10;;;;;;5026530;28;20553;-80
2022/01/07 07:36:31;;;;;;;13.68;6.53;;;1.40;92.10;;;;;;5009850;28;20036;-80
2022/01/07 07:39:07;;;;;;;21.73;8.02;;;1.40;92.10;;;;;;5034177;28;20037;-80
2022/01/07 07:41:33;;;;;;;15.90;8.68;;;1.50;92.10;;;;;;5018695;28;20058;-81
2022/01/07 07:43:59;;;;;;;14.27;7.10;;;1.50;92.10;;;;;;5013053;28;20033;-79
2022/01/07 07:46:25;;;;;;;16.45;8.35;;;1.50;92.10;;;;;;5011942;28;20036;-81
2022/01/07 07:48:51;;;;;;;21.42;10.50;;;1.50;92.10;;;;;;5017320;28;20097;-81
2022/01/07 07:51:17;;;;;;;13.93;7.63;;;1.50;92.10;;;;;;5018620;28;20447;-80
2022/01/07 07:53:42;;;;;;;13.10;6.53;;;1.50;92.10;;;;;;5024984;28;20039;-81
2022/01/07 07:56:09;;;;;;;17.15;8.35;;;1.50;92.10;;;;;;5022135;28;20679;-80
2022/01/07 07:58:35;;;;;;;67.55;23.98;;;1.50;92.10;;;;;;5016330;28;20056;-81
2022/01/07 08:01:00;;;;;;;27.92;13.15;;;1.50;92.00;;;;;;5017462;28;20095;-81
2022/01/07 08:03:26;;;;;;;15.32;7.93;;;1.60;92.10;;;;;;5000989;28;20033;-82
2022/01/07 08:05:51;;;;;;;18.48;8.27;;;1.60;92.10;;;;;;5018073;28;20496;-82
2022/01/07 08:08:17;;;;;;;17.58;7.80;;;1.60;92.10;;;;;;5017365;28;20031;-81
2022/01/07 08:10:49;;;;;;;15.32;7.80;;;1.60;92.10;;;;;;5016671;28;20579;-83
2022/01/07 08:13:27;;;;;;;11.95;7.00;;;1.60;92.10;;;;;;5012758;28;20155;-81
2022/01/07 08:16:00;;;;;;;19.00;9.55;;;1.60;92.10;;;;;;5026437;28;20037;-81
2022/01/07 08:18:27;;;;;;;13.88;7.60;;;1.60;92.10;;;;;;5010247;28;20056;-81
2022/01/07 08:20:54;;;;;;;20.77;10.32;;;1.60;92.10;;;;;;5012981;28;20044;-82
2022/01/07 08:23:19;;;;;;;58.05;22.58;;;1.60;92.10;;;;;;4986683;28;20612;-81
2022/01/07 08:25:45;;;;;;;20.63;10.57;;;1.60;92.00;;;;;;5012308;28;20036;-81
2022/01/07 08:28:12;;;;;;;11.40;6.72;;;1.70;92.00;;;;;;5036339;28;20037;-81
2022/01/07 08:30:59;;;;;;;13.82;6.65;;;1.70;92.10;;;;;;5019835;28;20046;-82
2022/01/07 08:36:08;;;;;;;12.38;6.45;;;1.70;92.00;;;;;;5024601;28;20410;-82
2022/01/07 08:38:33;;;;;;;20.80;8.60;;;1.70;92.00;;;;;;5034701;28;20033;-81
2022/01/07 08:40:59;;;;;;;15.70;7.90;;;1.70;92.00;;;;;;5022296;28;20061;-81
2022/01/07 08:43:25;;;;;;;15.75;6.85;;;1.70;92.00;;;;;;5004819;28;20405;-82
2022/01/07 08:45:50;;;;;;;13.00;6.90;;;1.70;92.00;;;;;;5019652;28;20393;-81
2022/01/07 08:48:16;;;;;;;20.65;9.18;;;1.80;92.00;;;;;;5003338;28;20540;-81
2022/01/07 08:50:41;;;;;;;26.55;10.68;;;1.80;92.00;;;;;;5043277;28;20512;-81
2022/01/07 08:53:07;;;;;;;12.90;7.18;;;1.80;92.00;;;;;;5020270;28;20046;-81
2022/01/07 08:55:33;;;;;;;12.95;7.57;;;1.80;92.00;;;;;;5023344;28;20044;-80
2022/01/07 08:57:58;;;;;;;15.57;7.30;;;1.80;91.90;;;;;;5019896;28;20090;-82
2022/01/07 09:00:24;;;;;;;15.00;7.75;;;1.80;91.90;;;;;;5011813;28;20041;-81
2022/01/07 09:02:50;;;;;;;12.52;6.40;;;1.80;91.90;;;;;;5004166;28;20123;-81
2022/01/07 09:05:15;;;;;;;11.57;6.35;;;1.80;91.90;;;;;;5026819;28;20709;-81
2022/01/07 09:07:41;;;;;;;13.13;6.53;;;1.90;91.90;;;;;;5028875;28;20128;-80
2022/01/07 09:10:06;;;;;;;12.13;5.82;;;1.90;91.90;;;;;;5021167;28;21453;-81
2022/01/07 09:12:32;;;;;;;15.90;7.43;;;1.90;91.90;;;;;;5018330;28;20037;-80
2022/01/07 09:14:58;;;;;;;9.98;6.53;;;1.90;91.90;;;;;;5029097;28;20125;-81
2022/01/07 09:17:23;;;;;;;11.82;6.10;;;1.90;91.90;;;;;;5020019;28;20453;-81
2022/01/07 09:19:49;;;;;;;10.48;5.28;;;1.90;91.90;;;;;;5018351;28;20760;-81
2022/01/07 09:22:15;;;;;;;10.52;5.45;;;1.90;91.80;;;;;;5020688;28;20033;-81
2022/01/07 09:24:40;;;;;;;9.93;4.97;;;1.90;91.80;;;;;;4987089;28;20390;-82
2022/01/07 09:27:06;;;;;;;9.77;5.63;;;1.90;91.80;;;;;;5003015;28;20038;-82
2022/01/07 09:29:31;;;;;;;8.45;4.90;;;1.90;91.90;;;;;;5003707;28;20046;-81
2022/01/07 09:31:57;;;;;;;37.78;15.18;;;1.90;91.80;;;;;;5019478;28;20056;-81
2022/01/07 09:34:23;;;;;;;16.83;7.45;;;1.90;91.80;;;;;;5026350;28;20064;-81
2022/01/07 09:36:48;;;;;;;19.50;7.88;;;2.00;91.80;;;;;;5011076;28;20128;-81
2022/01/07 09:39:14;;;;;;;22.38;10.13;;;2.00;91.80;;;;;;4990243;28;20091;-81
2022/01/07 09:41:39;;;;;;;30.75;12.00;;;2.00;91.80;;;;;;5004099;28;20095;-81
2022/01/07 09:44:11;;;;;;;14.98;7.00;;;2.00;91.80;;;;;;5009304;28;20041;-80
2022/01/07 09:46:37;;;;;;;15.00;6.95;;;2.00;91.80;;;;;;5000974;28;22309;-81
2022/01/07 09:49:04;;;;;;;19.02;7.25;;;2.00;91.80;;;;;;5001945;28;20034;-80
2022/01/07 09:51:29;;;;;;;10.38;6.00;;;2.00;91.80;;;;;;4986404;28;20064;-80
2022/01/07 09:53:55;;;;;;;9.10;5.50;;;2.00;91.80;;;;;;5013160;28;20034;-80
2022/01/07 09:56:21;;;;;;;25.40;9.77;;;2.00;91.80;;;;;;5012148;28;20060;-81
2022/01/07 09:58:47;;;;;;;40.45;14.10;;;2.00;91.80;;;;;;5004223;28;20674;-79
2022/01/07 10:01:17;;;;;;;20.30;7.78;;;2.00;91.80;;;;;;5006038;28;20033;-80
2022/01/07 10:03:43;;;;;;;29.20;11.68;;;2.00;91.80;;;;;;5018466;28;20180;-81
2022/01/07 10:06:35;;;;;;;20.85;8.80;;;2.00;91.80;;;;;;5003060;28;20095;-79
2022/01/07 10:09:07;;;;;;;27.20;9.98;;;2.00;91.80;;;;;;5014695;28;20276;-80
2022/01/07 10:11:33;;;;;;;10.65;5.07;;;2.00;91.80;;;;;;5018569;28;20030;-79
2022/01/07 10:14:21;;;;;;;13.82;6.65;;;2.00;92.10;;;;;;5011937;28;20037;-81
2022/01/07 10:16:57;;;;;;;100.03;26.02;;;2.00;91.80;;;;;;5017376;28;20679;-80
2022/01/07 10:19:39;;;;;;;14.43;7.43;;;2.00;91.80;;;;;;5000389;28;20056;-80
2022/01/07 10:22:07;;;;;;;21.67;10.27;;;2.00;91.80;;;;;;5019036;28;20049;-80
2022/01/07 10:24:33;;;;;;;13.38;7.30;;;2.00;91.80;;;;;;5003754;28;20033;-81
2022/01/07 10:27:14;;;;;;;12.00;7.03;;;2.00;91.80;;;;;;5023931;28;20622;-82
2022/01/07 10:29:41;;;;;;;17.08;8.07;;;2.00;91.90;;;;;;5001566;28;20033;-80
2022/01/07 10:32:29;;;;;;;13.45;7.72;;;2.00;91.80;;;;;;5017459;28;20041;-80
2022/01/07 10:35:09;;;;;;;11.82;5.93;;;2.00;91.90;;;;;;5003450;28;20032;-79
2022/01/07 10:37:45;;;;;;;12.23;6.63;;;2.00;91.90;;;;;;5042505;28;20184;-80
2022/01/07 10:40:30;;;;;;;10.73;6.10;;;2.00;91.80;;;;;;5018711;28;20034;-79
2022/01/07 10:43:29;;;;;;;13.07;6.38;;;2.00;91.90;;;;;;5010918;28;20039;-80
2022/01/07 10:45:57;;;;;;;10.52;5.45;;;2.00;91.90;;;;;;5014996;28;20063;-79
2022/01/07 10:48:43;;;;;;;10.35;5.40;;;2.00;91.80;;;;;;5035917;28;20621;-79
2022/01/07 10:51:12;;;;;;;12.25;5.00;;;2.00;91.90;;;;;;5026503;28;20137;-79
2022/01/07 10:53:38;;;;;;;7.57;4.55;;;2.00;91.90;;;;;;5021749;28;20038;-79
2022/01/07 10:56:11;;;;;;;7.90;4.55;;;2.00;91.80;;;;;;5014952;28;20029;-79
2022/01/07 10:58:43;;;;;;;9.60;5.00;;;2.00;91.90;;;;;;4995794;28;20033;-79
2022/01/07 11:01:20;;;;;;;7.32;4.13;;;2.10;91.90;;;;;;5010305;28;20033;-80
2022/01/07 11:03:53;;;;;;;6.72;4.75;;;2.00;91.90;;;;;;5012191;28;20092;-82
2022/01/07 11:06:19;;;;;;;14.60;7.00;;;2.00;91.90;;;;;;5025384;28;20079;-81
2022/01/07 11:08:45;;;;;;;7.10;4.47;;;2.10;92.30;;;;;;5035817;28;20033;-81
2022/01/07 11:11:11;;;;;;;9.95;4.60;;;2.10;92.00;;;;;;5035859;28;20526;-80
2022/01/07 11:13:37;;;;;;;9.05;5.10;;;2.10;92.00;;;;;;5021209;28;20045;-81
2022/01/07 11:16:03;;;;;;;7.88;5.32;;;2.00;91.90;;;;;;5021544;28;20068;-81
2022/01/07 11:18:28;;;;;;;7.70;4.85;;;2.10;92.00;;;;;;5023631;28;20045;-81
2022/01/07 11:20:58;;;;;;;28.70;12.27;;;2.10;92.00;;;;;;5039531;28;20395;-81
2022/01/07 11:23:29;;;;;;;8.23;5.57;;;2.10;92.00;;;;;;5025374;28;20033;-80
2022/01/07 11:26:01;;;;;;;32.78;14.00;;;2.10;92.10;;;;;;5040712;28;20537;-80
2022/01/07 11:28:27;;;;;;;18.48;8.98;;;2.10;92.00;;;;;;5036101;28;20040;-80
2022/01/07 11:31:05;;;;;;;16.95;7.97;;;2.10;92.00;;;;;;5020183;28;20045;-79
2022/01/07 11:33:30;;;;;;;97.15;38.75;;;2.10;92.00;;;;;;5039878;28;20029;-80
2022/01/07 11:35:56;;;;;;;23.25;10.63;;;2.20;92.00;;;;;;5013717;28;20079;-80
2022/01/07 11:38:44;;;;;;;19.05;9.02;;;2.20;92.00;;;;;;5044462;28;20037;-80
2022/01/07 11:41:15;;;;;;;21.20;10.52;;;2.20;92.10;;;;;;5037005;28;20036;-80
2022/01/07 11:43:45;;;;;;;12.38;6.15;;;2.20;92.00;;;;;;5036840;28;20053;-82
2022/01/07 11:46:20;;;;;;;14.13;7.87;;;2.20;92.10;;;;;;5037663;28;20029;-80
2022/01/07 11:48:46;;;;;;;12.27;8.27;;;2.30;92.10;;;;;;5040209;28;20032;-79
2022/01/07 11:51:13;;;;;;;7.43;5.38;;;2.30;92.10;;;;;;5035015;28;20037;-80
2022/01/07 11:53:39;;;;;;;12.23;7.13;;;2.30;92.10;;;;;;5033043;28;20499;-79
2022/01/07 11:56:05;;;;;;;9.13;5.93;;;2.30;92.10;;;;;;5037622;28;20052;-80
2022/01/07 11:58:40;;;;;;;7.07;5.30;;;2.30;92.10;;;;;;5041482;28;20061;-80
2022/01/07 12:01:06;;;;;;;7.70;4.78;;;2.40;92.10;;;;;;5036820;28;20021;-80
2022/01/07 12:03:51;;;;;;;9.98;5.40;;;2.30;92.00;;;;;;5030617;28;20091;-80
2022/01/07 12:06:26;;;;;;;6.22;4.28;;;2.30;92.10;;;;;;5038963;28;20765;-79
2022/01/07 12:09:09;;;;;;;8.23;4.10;;;2.30;92.10;;;;;;5028960;28;20048;-80
2022/01/07 12:11:35;;;;;;;5.60;4.07;;;2.40;92.00;;;;;;5044189;28;20491;-79
2022/01/07 12:14:10;;;;;;;6.32;4.03;;;2.30;92.00;;;;;;5036120;28;20128;-80
2022/01/07 12:16:36;;;;;;;6.82;4.20;;;2.30;92.00;;;;;;5023711;28;20143;-80
2022/01/07 12:19:16;;;;;;;7.05;4.43;;;2.30;92.10;;;;;;5029349;28;20080;-79
2022/01/07 12:21:43;;;;;;;6.97;3.65;;;2.30;92.10;;;;;;5038640;28;20186;-80
2022/01/07 12:24:11;;;;;;;6.72;4.30;;;2.30;92.10;;;;;;5042868;28;20608;-79
2022/01/07 12:26:37;;;;;;;5.32;4.05;;;2.30;92.10;;;;;;5022266;28;20033;-80
2022/01/07 12:29:03;;;;;;;6.43;4.13;;;2.40;92.10;;;;;;5019270;28;20078;-79
2022/01/07 12:31:28;;;;;;;6.40;3.65;;;2.40;92.10;;;;;;5030268;28;20048;-80
2022/01/07 12:33:55;;;;;;;4.57;3.53;;;2.40;92.10;;;;;;5024194;28;20029;-78
2022/01/07 12:36:30;;;;;;;8.85;3.90;;;2.40;92.10;;;;;;5040682;28;20581;-80
2022/01/07 12:38:59;;;;;;;6.65;3.90;;;2.40;92.10;;;;;;5013096;28;20586;-79
2022/01/07 12:41:25;;;;;;;6.13;3.95;;;2.50;92.50;;;;;;5041015;28;20025;-80
2022/01/07 12:44:07;;;;;;;6.47;4.00;;;2.50;92.10;;;;;;5041432;28;20032;-79
2022/01/07 12:46:33;;;;;;;5.05;3.17;;;2.50;92.10;;;;;;5024765;28;20029;-80
2022/01/07 12:48:58;;;;;;;4.28;3.30;;;2.50;92.10;;;;;;5047534;28;20094;-79
2022/01/07 12:51:24;;;;;;;4.10;3.08;;;2.50;92.10;;;;;;5041856;28;20418;-80